Time;durP1;ratioP1;P1;durP2;ratioP2;P2;SDS_P1;SDS_P2;PMS_P1;PMS_P2;Temp;Humidity;BMP_temperature;BMP_pressure;BME280_temperature;BME280_humidity;BME280_pressure;Samples;Min_cycle;Max_cycle;Signal;HPM_P1;HPM_P2
2023/07/28 00:02:01;;;;;;;12.05;3.25;;;26.20;62.60;;;;;;6235671;22;20030;-75
2023/07/28 00:04:27;;;;;;;9.55;3.60;;;26.10;62.40;;;;;;6215170;23;20024;-74
2023/07/28 00:06:52;;;;;;;14.85;3.55;;;26.00;62.40;;;;;;6215177;23;19997;-75
2023/07/28 00:09:18;;;;;;;9.43;3.63;;;26.00;62.50;;;;;;6216035;23;20095;-74
2023/07/28 00:11:44;;;;;;;11.82;3.58;;;26.00;62.70;;;;;;6215836;23;20311;-74
2023/07/28 00:14:09;;;;;;;11.02;3.50;;;25.90;62.40;;;;;;6215628;23;20000;-74
2023/07/28 00:16:35;;;;;;;10.38;4.25;;;25.90;62.70;;;;;;6215712;23;20000;-74
2023/07/28 00:19:01;;;;;;;17.08;3.92;;;25.90;62.20;;;;;;6215275;23;20005;-75
2023/07/28 00:21:27;;;;;;;11.25;3.70;;;25.80;62.20;;;;;;6215282;23;20043;-76
2023/07/28 00:23:53;;;;;;;10.20;3.47;;;25.70;62.20;;;;;;6215101;23;20011;-74
2023/07/28 00:26:19;;;;;;;10.95;3.40;;;25.70;62.40;;;;;;6215481;23;20023;-75
2023/07/28 00:28:44;;;;;;;11.63;3.40;;;25.70;62.20;;;;;;6215299;23;20470;-75
2023/07/28 00:31:10;;;;;;;10.30;3.22;;;25.60;62.10;;;;;;6216808;23;20076;-71
2023/07/28 00:33:37;;;;;;;11.90;3.58;;;25.60;61.90;;;;;;6215430;23;20039;-74
2023/07/28 00:36:03;;;;;;;11.65;3.90;;;25.60;61.90;;;;;;6215113;23;20496;-75
2023/07/28 00:38:29;;;;;;;11.77;3.45;;;25.60;61.90;;;;;;6215197;23;20026;-74
2023/07/28 00:40:54;;;;;;;9.18;3.28;;;25.50;61.80;;;;;;6215076;23;20490;-76
2023/07/28 00:43:20;;;;;;;11.95;4.18;;;25.50;61.40;;;;;;6215320;23;20005;-75
2023/07/28 00:45:46;;;;;;;11.82;3.65;;;25.50;61.60;;;;;;6215171;23;19996;-75
2023/07/28 00:48:13;;;;;;;11.52;3.30;;;25.50;61.50;;;;;;6215365;23;20016;-75
2023/07/28 00:50:42;;;;;;;12.35;3.65;;;25.50;61.40;;;;;;6214852;23;20015;-76
2023/07/28 00:53:08;;;;;;;12.15;3.45;;;25.50;61.30;;;;;;6188264;23;20012;-74
2023/07/28 00:55:34;;;;;;;12.07;3.53;;;25.50;61.60;;;;;;6215175;23;20047;-74
2023/07/28 00:58:00;;;;;;;13.23;3.83;;;25.50;61.70;;;;;;6215432;23;20316;-74
2023/07/28 01:00:25;;;;;;;14.50;3.50;;;25.50;61.80;;;;;;6214836;23;20028;-75
2023/07/28 01:02:51;;;;;;;10.13;3.30;;;25.50;62.10;;;;;;6214655;23;20084;-75
2023/07/28 01:05:17;;;;;;;11.48;4.13;;;25.50;61.90;;;;;;6214736;23;20071;-74
2023/07/28 01:07:42;;;;;;;10.73;3.10;;;25.40;61.70;;;;;;6215186;23;20005;-75
2023/07/28 01:10:19;;;;;;;18.17;4.05;;;25.40;61.80;;;;;;6214927;23;20007;-74
2023/07/28 01:12:45;;;;;;;15.02;3.35;;;25.30;62.10;;;;;;6188340;23;20449;-75
2023/07/28 01:15:11;;;;;;;13.27;3.33;;;25.30;61.80;;;;;;6214456;23;20005;-75
2023/07/28 01:17:36;;;;;;;15.63;4.10;;;25.30;61.80;;;;;;6215033;23;20071;-76
2023/07/28 01:20:03;;;;;;;17.10;3.90;;;25.20;61.80;;;;;;6214611;23;20381;-74
2023/07/28 01:22:52;;;;;;;10.52;3.35;;;25.20;62.30;;;;;;6214772;23;20462;-75
2023/07/28 01:25:36;;;;;;;12.45;2.92;;;25.20;62.50;;;;;;6214682;23;20004;-76
2023/07/28 01:28:03;;;;;;;11.23;3.53;;;25.10;62.20;;;;;;6214608;23;20005;-76
2023/07/28 01:30:29;;;;;;;9.75;3.45;;;25.10;62.30;;;;;;6214809;23;20068;-74
2023/07/28 01:32:56;;;;;;;11.30;3.58;;;25.00;62.20;;;;;;6214461;23;20335;-74
2023/07/28 01:35:22;;;;;;;9.00;2.72;;;25.00;62.20;;;;;;6215151;23;20004;-75
2023/07/28 01:37:50;;;;;;;14.52;3.75;;;25.00;62.20;;;;;;6214901;23;20004;-75
2023/07/28 01:40:20;;;;;;;12.65;3.03;;;25.00;62.10;;;;;;6214707;23;20008;-75
2023/07/28 01:42:46;;;;;;;11.35;2.90;;;24.90;62.00;;;;;;6214742;23;20356;-73
2023/07/28 01:45:12;;;;;;;10.25;2.80;;;24.90;62.00;;;;;;6214772;23;20496;-74
2023/07/28 01:47:37;;;;;;;12.13;3.58;;;24.80;62.20;;;;;;6214496;23;20032;-75
2023/07/28 01:50:03;;;;;;;10.55;3.17;;;24.80;62.20;;;;;;6214400;23;20061;-75
2023/07/28 01:52:29;;;;;;;9.23;2.92;;;24.80;62.20;;;;;;6214525;23;20067;-74
2023/07/28 01:54:55;;;;;;;9.15;3.38;;;24.80;62.30;;;;;;6214287;23;20059;-75
2023/07/28 01:57:20;;;;;;;11.60;2.92;;;24.80;61.90;;;;;;6214423;23;20011;-73
2023/07/28 01:59:46;;;;;;;6.88;3.00;;;24.80;61.70;;;;;;6214779;23;20001;-75
2023/07/28 02:02:12;;;;;;;12.45;3.38;;;24.70;61.70;;;;;;6214432;23;20020;-75
2023/07/28 02:04:38;;;;;;;9.68;3.25;;;24.70;62.10;;;;;;6214447;23;20021;-75
2023/07/28 02:07:03;;;;;;;9.57;3.35;;;24.60;62.40;;;;;;6214091;23;20086;-74
2023/07/28 02:09:29;;;;;;;12.00;3.33;;;24.60;62.40;;;;;;6214868;23;20039;-74
2023/07/28 02:11:55;;;;;;;10.75;3.38;;;24.60;62.20;;;;;;6214244;23;20001;-75
2023/07/28 02:14:20;;;;;;;9.68;3.60;;;24.60;62.20;;;;;;6214754;23;20013;-75
2023/07/28 02:16:46;;;;;;;8.13;3.22;;;24.50;62.20;;;;;;6214480;23;20035;-74
2023/07/28 02:19:12;;;;;;;9.50;2.80;;;24.50;62.30;;;;;;6187544;23;20323;-75
2023/07/28 02:21:37;;;;;;;8.18;2.70;;;24.50;62.70;;;;;;6214815;23;20086;-74
2023/07/28 02:24:03;;;;;;;10.65;3.22;;;24.40;62.80;;;;;;6220051;23;20001;-76
2023/07/28 02:26:29;;;;;;;9.57;3.13;;;24.40;62.90;;;;;;6223024;23;20028;-74
2023/07/28 02:28:54;;;;;;;14.90;3.50;;;24.40;63.10;;;;;;6216765;23;20593;-74
2023/07/28 02:31:20;;;;;;;9.65;3.00;;;24.40;63.30;;;;;;6216488;23;19993;-76
2023/07/28 02:33:46;;;;;;;14.23;3.40;;;24.50;63.10;;;;;;6216549;23;20051;-75
2023/07/28 02:36:11;;;;;;;13.63;3.45;;;24.50;63.20;;;;;;6216491;23;20427;-74
2023/07/28 02:38:37;;;;;;;12.70;2.92;;;24.50;63.20;;;;;;6215969;23;20094;-73
2023/07/28 02:41:03;;;;;;;11.45;3.25;;;24.40;63.30;;;;;;6216266;23;20005;-75
2023/07/28 02:43:29;;;;;;;10.85;3.03;;;24.40;63.30;;;;;;6216002;23;20114;-74
2023/07/28 02:45:57;;;;;;;15.13;3.25;;;24.40;63.50;;;;;;6216232;23;20390;-75
2023/07/28 02:48:23;;;;;;;11.70;3.15;;;24.40;63.60;;;;;;6189338;23;20016;-74
2023/07/28 02:50:52;;;;;;;11.15;3.30;;;24.30;63.60;;;;;;6216213;23;20054;-73
2023/07/28 02:53:18;;;;;;;10.73;3.00;;;24.30;64.00;;;;;;6216206;23;20000;-74
2023/07/28 02:55:44;;;;;;;9.80;3.45;;;24.30;63.70;;;;;;6216149;23;20335;-75
2023/07/28 02:58:11;;;;;;;10.23;2.90;;;24.30;63.80;;;;;;6216040;23;20000;-75
2023/07/28 03:00:44;;;;;;;16.77;3.38;;;24.40;63.80;;;;;;6216220;23;20001;-75
2023/07/28 03:03:11;;;;;;;13.05;3.13;;;24.40;64.00;;;;;;6215622;23;20023;-73
2023/07/28 03:05:37;;;;;;;8.48;2.75;;;24.40;63.80;;;;;;6215990;23;20013;-74
2023/07/28 03:08:04;;;;;;;11.68;3.53;;;24.30;63.70;;;;;;6216071;23;20000;-74
2023/07/28 03:10:29;;;;;;;10.52;2.70;;;24.30;63.60;;;;;;6216061;23;20004;-73
2023/07/28 03:12:56;;;;;;;10.77;3.40;;;24.30;63.60;;;;;;6216039;23;20032;-74
2023/07/28 03:15:22;;;;;;;8.82;3.25;;;24.30;63.60;;;;;;6215920;23;20007;-74
2023/07/28 03:17:48;;;;;;;9.25;3.28;;;24.30;63.70;;;;;;6216365;23;20011;-74
2023/07/28 03:20:14;;;;;;;12.23;3.22;;;24.20;63.70;;;;;;6215486;23;20008;-75
2023/07/28 03:22:40;;;;;;;15.50;3.10;;;24.30;63.80;;;;;;6216026;23;20050;-74
2023/07/28 03:25:06;;;;;;;8.75;2.85;;;24.30;63.70;;;;;;6215164;23;20082;-74
2023/07/28 03:27:31;;;;;;;11.13;3.60;;;24.20;63.80;;;;;;6216197;23;20008;-74
2023/07/28 03:29:57;;;;;;;9.40;2.90;;;24.10;64.00;;;;;;6216068;23;20028;-75
2023/07/28 03:32:23;;;;;;;12.13;3.40;;;24.10;64.10;;;;;;6216084;23;20028;-74
2023/07/28 03:34:48;;;;;;;8.80;3.20;;;24.20;64.80;;;;;;6216103;23;20004;-74
2023/07/28 03:37:14;;;;;;;8.68;3.15;;;24.10;64.00;;;;;;6215575;23;20031;-74
2023/07/28 03:39:40;;;;;;;9.90;2.92;;;24.10;64.30;;;;;;6189240;23;20016;-75
2023/07/28 03:42:06;;;;;;;9.55;3.15;;;24.20;64.20;;;;;;6188991;23;20037;-74
2023/07/28 03:44:32;;;;;;;7.00;2.88;;;24.20;64.00;;;;;;6189358;23;20446;-74
2023/07/28 03:46:57;;;;;;;8.38;2.60;;;24.10;64.10;;;;;;6215955;23;20051;-75
2023/07/28 03:49:23;;;;;;;12.38;3.03;;;24.10;64.10;;;;;;6215974;23;20016;-75
2023/07/28 03:51:49;;;;;;;12.05;2.78;;;24.10;64.30;;;;;;6216062;23;20001;-74
2023/07/28 03:54:14;;;;;;;9.95;2.92;;;24.10;64.50;;;;;;6215949;23;20007;-74
2023/07/28 03:56:40;;;;;;;8.50;3.17;;;24.10;64.40;;;;;;6215857;23;19997;-75
2023/07/28 03:59:06;;;;;;;8.43;2.83;;;24.20;64.40;;;;;;6215574;23;20320;-74
2023/07/28 04:01:31;;;;;;;8.73;2.78;;;24.20;64.40;;;;;;6215719;23;20009;-74
2023/07/28 04:03:58;;;;;;;8.23;2.63;;;24.20;64.30;;;;;;6215436;23;20446;-74
2023/07/28 04:06:59;;;;;;;11.05;2.80;;;24.10;64.40;;;;;;6215428;23;20009;-74
2023/07/28 04:09:25;;;;;;;11.95;2.80;;;24.00;64.20;;;;;;6094294;23;20024;-74
2023/07/28 04:11:50;;;;;;;10.98;3.75;;;24.00;64.60;;;;;;6190530;23;20012;-75
2023/07/28 04:14:16;;;;;;;8.13;3.47;;;24.10;64.50;;;;;;6215931;23;20008;-75
2023/07/28 04:16:42;;;;;;;9.52;2.97;;;24.00;64.30;;;;;;6215389;23;20379;-74
2023/07/28 04:19:07;;;;;;;8.38;2.70;;;24.00;64.30;;;;;;6215483;23;20428;-74
2023/07/28 04:21:33;;;;;;;7.53;2.60;;;24.20;64.50;;;;;;6215310;23;20426;-74
2023/07/28 04:23:59;;;;;;;8.52;3.20;;;24.20;64.30;;;;;;6215033;23;20311;-74
2023/07/28 04:26:25;;;;;;;10.77;3.40;;;24.10;64.30;;;;;;6215081;23;20004;-75
2023/07/28 04:28:51;;;;;;;9.40;3.42;;;24.10;64.50;;;;;;6215041;23;20026;-73
2023/07/28 04:31:17;;;;;;;8.15;3.10;;;24.00;64.50;;;;;;6215207;23;20024;-75
2023/07/28 04:33:43;;;;;;;9.00;3.72;;;24.10;64.70;;;;;;6215122;23;20012;-75
2023/07/28 04:36:09;;;;;;;12.50;3.45;;;24.10;64.80;;;;;;6215361;23;20007;-75
2023/07/28 04:38:35;;;;;;;12.40;3.25;;;24.00;64.80;;;;;;6215350;23;19997;-75
2023/07/28 04:41:00;;;;;;;11.57;3.40;;;24.10;64.80;;;;;;6215666;23;20024;-75
2023/07/28 04:43:26;;;;;;;12.85;3.28;;;24.20;64.60;;;;;;6214893;23;20027;-75
2023/07/28 04:45:52;;;;;;;11.80;3.75;;;24.30;64.50;;;;;;6188242;23;20050;-74
2023/07/28 04:48:17;;;;;;;10.15;3.22;;;24.30;64.40;;;;;;6214843;23;20078;-76
2023/07/28 04:50:44;;;;;;;8.93;3.00;;;24.30;64.30;;;;;;6214384;23;19996;-75
2023/07/28 04:53:10;;;;;;;8.73;3.00;;;24.30;64.30;;;;;;6214807;23;20000;-74
2023/07/28 04:55:36;;;;;;;13.18;3.42;;;24.20;64.30;;;;;;6214764;23;19996;-75
2023/07/28 04:58:01;;;;;;;8.70;2.60;;;24.10;64.50;;;;;;6214875;23;19997;-74
2023/07/28 05:00:27;;;;;;;7.15;2.58;;;24.10;64.50;;;;;;6214902;23;20456;-75
2023/07/28 05:02:53;;;;;;;10.52;3.03;;;24.00;64.40;;;;;;6214803;23;20025;-75
2023/07/28 05:05:19;;;;;;;8.98;3.20;;;23.90;64.70;;;;;;6215288;23;20007;-76
2023/07/28 05:07:45;;;;;;;7.57;2.85;;;24.00;64.90;;;;;;6214776;23;20009;-75
2023/07/28 05:10:11;;;;;;;7.22;2.88;;;24.00;64.80;;;;;;6214749;23;20009;-74
2023/07/28 05:12:36;;;;;;;12.27;2.70;;;24.00;64.90;;;;;;6214535;23;20422;-75
2023/07/28 05:15:02;;;;;;;12.80;3.38;;;23.90;64.60;;;;;;6214703;23;20015;-75
2023/07/28 05:17:28;;;;;;;10.20;3.20;;;24.00;64.80;;;;;;6187849;23;20013;-75
2023/07/28 05:19:54;;;;;;;11.65;3.42;;;24.10;64.70;;;;;;6214498;23;20024;-74
2023/07/28 05:22:19;;;;;;;10.02;2.72;;;24.20;64.80;;;;;;6214427;23;20369;-75
2023/07/28 05:24:45;;;;;;;15.80;3.35;;;24.40;64.50;;;;;;6214516;23;20368;-75
2023/07/28 05:27:12;;;;;;;12.48;3.50;;;24.70;64.10;;;;;;6214245;23;20431;-74
2023/07/28 05:29:38;;;;;;;10.50;2.92;;;25.00;63.60;;;;;;6214338;23;20011;-75
2023/07/28 05:32:04;;;;;;;7.75;2.60;;;25.40;62.80;;;;;;6214270;23;20000;-74
2023/07/28 05:34:30;;;;;;;12.25;3.38;;;25.70;62.20;;;;;;6214458;23;20084;-75
2023/07/28 05:36:55;;;;;;;8.90;3.33;;;26.10;61.50;;;;;;6214763;23;20387;-75
2023/07/28 05:39:21;;;;;;;17.48;3.08;;;26.40;60.60;;;;;;6214553;23;20446;-75
2023/07/28 05:41:47;;;;;;;10.40;3.05;;;26.70;59.80;;;;;;6187844;23;20094;-76
2023/07/28 05:44:13;;;;;;;10.18;2.83;;;26.90;59.50;;;;;;6214663;23;20350;-75
2023/07/28 05:46:39;;;;;;;13.07;3.08;;;27.20;58.30;;;;;;6214244;23;20001;-77
2023/07/28 05:49:04;;;;;;;10.30;2.80;;;27.40;57.60;;;;;;6214649;23;20017;-80
2023/07/28 05:51:30;;;;;;;12.75;3.25;;;27.70;57.10;;;;;;6214458;23;20396;-76
2023/07/28 05:53:56;;;;;;;7.85;2.85;;;27.80;56.70;;;;;;6214179;23;20005;-75
2023/07/28 05:56:22;;;;;;;13.02;3.00;;;28.00;56.50;;;;;;6213968;23;20035;-76
2023/07/28 05:58:49;;;;;;;9.00;2.97;;;28.20;56.00;;;;;;6214163;23;20019;-77
2023/07/28 06:01:15;;;;;;;12.95;2.95;;;28.10;56.00;;;;;;6186862;23;20001;-77
2023/07/28 06:03:40;;;;;;;14.02;2.85;;;28.30;55.70;;;;;;6213899;23;20031;-75
2023/07/28 06:06:07;;;;;;;16.05;3.65;;;28.50;55.30;;;;;;6213939;23;19997;-75
2023/07/28 06:08:32;;;;;;;14.57;3.40;;;28.60;55.00;;;;;;6214486;23;20059;-76
2023/07/28 06:10:58;;;;;;;15.63;3.10;;;28.90;54.60;;;;;;6214034;23;20008;-75
2023/07/28 06:13:24;;;;;;;13.48;3.05;;;29.00;54.10;;;;;;6214010;23;20087;-78
2023/07/28 06:15:49;;;;;;;15.15;3.85;;;29.30;53.90;;;;;;6213925;23;20374;-74
2023/07/28 06:18:16;;;;;;;10.55;3.38;;;29.40;53.50;;;;;;6214037;23;20076;-75
2023/07/28 06:20:45;;;;;;;17.23;3.13;;;29.70;53.00;;;;;;6214110;23;20035;-73
2023/07/28 06:23:10;;;;;;;12.05;3.05;;;29.80;52.80;;;;;;6214070;23;20028;-73
2023/07/28 06:25:42;;;;;;;15.95;3.50;;;29.90;52.40;;;;;;6214234;23;20047;-73
2023/07/28 06:28:08;;;;;;;11.68;3.47;;;30.10;52.00;;;;;;6214031;23;20000;-72
2023/07/28 06:30:33;;;;;;;10.82;3.22;;;30.30;51.60;;;;;;6213824;23;20047;-73
2023/07/28 06:32:59;;;;;;;14.35;3.63;;;30.30;51.50;;;;;;6213313;23;20414;-73
2023/07/28 06:35:25;;;;;;;8.98;2.65;;;30.30;51.10;;;;;;6213395;23;20017;-74
2023/07/28 06:37:50;;;;;;;12.15;3.47;;;30.30;51.10;;;;;;6213647;23;20007;-73
2023/07/28 06:40:16;;;;;;;12.43;3.30;;;30.50;51.20;;;;;;6213809;23;20035;-73
2023/07/28 06:42:42;;;;;;;12.63;3.50;;;30.70;50.90;;;;;;6214059;23;20031;-74
2023/07/28 06:45:08;;;;;;;16.63;3.50;;;30.80;50.40;;;;;;6212833;23;20312;-74
2023/07/28 06:47:34;;;;;;;15.05;3.28;;;31.00;50.20;;;;;;6213430;23;20028;-74
2023/07/28 06:49:59;;;;;;;14.68;3.17;;;31.10;50.20;;;;;;6213103;23;20009;-74
2023/07/28 06:52:25;;;;;;;13.82;3.72;;;31.20;50.00;;;;;;6213797;23;20488;-75
2023/07/28 06:54:51;;;;;;;13.98;4.20;;;31.20;50.00;;;;;;6213544;23;20011;-74
2023/07/28 06:57:16;;;;;;;17.83;3.67;;;31.20;49.60;;;;;;6213701;23;20007;-74
2023/07/28 06:59:42;;;;;;;11.98;3.33;;;31.00;50.20;;;;;;6213975;23;20059;-76
2023/07/28 07:02:09;;;;;;;40.10;6.13;;;31.20;50.10;;;;;;6213646;23;20343;-74
2023/07/28 07:04:35;;;;;;;11.88;3.63;;;31.30;49.80;;;;;;6213896;23;20019;-73
2023/07/28 07:07:00;;;;;;;16.70;4.25;;;31.30;49.80;;;;;;6187395;23;20005;-75
2023/07/28 07:09:26;;;;;;;13.00;3.38;;;31.20;50.00;;;;;;6213478;23;20029;-74
2023/07/28 07:11:52;;;;;;;13.98;3.17;;;31.30;50.10;;;;;;6213799;23;20407;-74
2023/07/28 07:14:18;;;;;;;13.50;3.40;;;31.40;50.00;;;;;;6215511;23;20490;-75
2023/07/28 07:16:44;;;;;;;8.88;2.53;;;31.50;49.90;;;;;;6215886;23;20379;-74
2023/07/28 07:19:10;;;;;;;11.80;3.28;;;31.60;50.00;;;;;;6216115;23;20059;-75
2023/07/28 07:21:35;;;;;;;14.20;3.58;;;31.60;50.10;;;;;;6215657;23;20299;-74
2023/07/28 07:24:04;;;;;;;16.33;3.50;;;31.70;50.20;;;;;;6215365;23;20001;-74
2023/07/28 07:26:31;;;;;;;12.10;2.75;;;31.70;50.40;;;;;;6215251;23;20399;-74
2023/07/28 07:28:57;;;;;;;11.98;3.40;;;31.60;51.00;;;;;;6188379;23;20538;-75
2023/07/28 07:31:23;;;;;;;13.13;2.92;;;31.60;50.90;;;;;;6215144;23;20081;-74
2023/07/28 07:33:49;;;;;;;11.38;2.85;;;31.60;51.00;;;;;;6215242;23;20040;-75
2023/07/28 07:36:17;;;;;;;8.80;2.72;;;31.70;50.90;;;;;;6215411;23;20361;-75
2023/07/28 07:38:45;;;;;;;10.18;3.05;;;31.70;51.00;;;;;;6215478;23;20004;-76
2023/07/28 07:41:12;;;;;;;20.48;3.75;;;31.80;51.00;;;;;;6214846;23;20009;-74
2023/07/28 07:43:39;;;;;;;17.88;3.17;;;31.80;50.80;;;;;;6215559;23;20020;-75
2023/07/28 07:46:04;;;;;;;17.10;5.13;;;31.90;50.50;;;;;;6215048;23;20024;-75
2023/07/28 07:48:30;;;;;;;8.13;2.30;;;31.80;50.50;;;;;;6215110;23;20009;-75
2023/07/28 07:50:56;;;;;;;13.40;2.85;;;31.70;50.70;;;;;;6214906;23;20370;-67
2023/07/28 07:53:21;;;;;;;14.50;4.13;;;31.70;50.50;;;;;;6215142;23;20008;-74
2023/07/28 07:55:49;;;;;;;11.13;3.05;;;31.60;50.50;;;;;;6215071;23;20005;-74
2023/07/28 07:58:14;;;;;;;10.45;3.03;;;31.60;50.50;;;;;;6215190;23;20427;-74
2023/07/28 08:00:40;;;;;;;7.40;2.70;;;31.70;50.20;;;;;;6215520;23;20122;-75
2023/07/28 08:03:06;;;;;;;7.38;2.72;;;31.60;50.10;;;;;;6216255;23;20016;-75
2023/07/28 08:05:31;;;;;;;9.35;2.40;;;31.50;50.30;;;;;;6215705;23;20334;-74
2023/07/28 08:07:57;;;;;;;11.02;2.47;;;31.40;50.30;;;;;;6215313;23;20005;-74
2023/07/28 08:10:23;;;;;;;7.57;2.60;;;31.40;50.40;;;;;;6215450;23;20054;-76
2023/07/28 08:12:49;;;;;;;12.18;2.63;;;31.30;50.40;;;;;;6215309;23;20008;-75
2023/07/28 08:15:15;;;;;;;20.02;3.47;;;31.30;50.60;;;;;;6215545;23;20004;-74
2023/07/28 08:17:40;;;;;;;14.15;3.40;;;31.20;50.70;;;;;;6215291;23;20122;-75
2023/07/28 08:20:07;;;;;;;9.23;3.03;;;31.10;50.80;;;;;;6215169;23;20004;-74
2023/07/28 08:22:33;;;;;;;8.80;2.88;;;31.00;50.70;;;;;;6188736;23;20001;-74
2023/07/28 08:24:59;;;;;;;10.20;2.58;;;30.90;50.90;;;;;;6214923;23;20000;-74
2023/07/28 08:27:25;;;;;;;6.85;2.85;;;30.80;50.70;;;;;;6215424;23;20005;-74
2023/07/28 08:29:50;;;;;;;6.15;2.53;;;30.80;50.80;;;;;;6215477;23;20005;-75
2023/07/28 08:32:16;;;;;;;9.88;2.90;;;30.80;50.60;;;;;;6188822;23;20342;-75
2023/07/28 08:34:42;;;;;;;7.72;2.90;;;30.70;50.30;;;;;;6215632;23;20091;-75
2023/07/28 08:37:08;;;;;;;9.15;2.53;;;30.60;50.60;;;;;;6215183;23;19997;-74
2023/07/28 08:39:34;;;;;;;7.05;2.55;;;30.60;50.60;;;;;;6215276;23;19996;-74
2023/07/28 08:42:04;;;;;;;7.07;2.67;;;30.50;50.70;;;;;;6215251;23;20024;-75
2023/07/28 08:44:32;;;;;;;8.52;2.38;;;30.50;50.30;;;;;;6215870;23;20009;-73
2023/07/28 08:47:04;;;;;;;9.02;2.55;;;30.40;50.60;;;;;;6216036;23;20019;-74
2023/07/28 08:49:32;;;;;;;8.88;2.88;;;30.30;49.40;;;;;;6215620;23;20023;-75
2023/07/28 08:52:00;;;;;;;9.73;2.45;;;30.10;50.50;;;;;;6215798;23;20076;-74
2023/07/28 08:54:26;;;;;;;11.27;2.67;;;30.10;50.60;;;;;;6215196;23;20004;-75
2023/07/28 08:56:52;;;;;;;9.68;3.28;;;30.00;50.70;;;;;;6215173;23;20004;-74
2023/07/28 08:59:26;;;;;;;11.00;2.83;;;29.80;50.80;;;;;;6214873;23;20004;-74
2023/07/28 09:01:53;;;;;;;9.05;2.80;;;29.80;51.00;;;;;;6214742;23;20005;-74
2023/07/28 09:04:20;;;;;;;8.93;2.50;;;29.80;50.70;;;;;;6214587;23;20055;-76
2023/07/28 09:06:47;;;;;;;11.63;2.72;;;29.80;50.60;;;;;;6214698;23;20072;-73
2023/07/28 09:09:19;;;;;;;7.90;2.47;;;29.80;50.30;;;;;;6214620;23;20013;-74
2023/07/28 09:11:49;;;;;;;6.97;2.90;;;29.90;50.20;;;;;;6214583;23;20005;-75
2023/07/28 09:14:16;;;;;;;9.85;3.10;;;29.80;49.00;;;;;;6214207;23;20027;-74
2023/07/28 09:16:43;;;;;;;7.18;3.38;;;29.80;50.10;;;;;;6214540;23;20416;-74
2023/07/28 09:19:09;;;;;;;11.40;2.72;;;29.90;50.10;;;;;;6214469;23;20054;-75
2023/07/28 09:21:37;;;;;;;10.70;3.00;;;29.90;50.00;;;;;;6214610;23;20019;-73
2023/07/28 09:24:06;;;;;;;8.50;2.60;;;30.00;50.00;;;;;;6214753;23;20013;-74
2023/07/28 09:26:45;;;;;;;9.85;2.80;;;30.00;49.60;;;;;;6214623;23;20006;-74
2023/07/28 09:29:19;;;;;;;8.93;2.67;;;30.00;48.50;;;;;;6214526;23;20016;-75
2023/07/28 09:31:46;;;;;;;11.93;2.63;;;30.00;49.60;;;;;;6214920;23;20095;-74
2023/07/28 09:34:22;;;;;;;6.75;2.60;;;30.00;49.40;;;;;;6214306;23;20015;-75
2023/07/28 09:36:49;;;;;;;7.20;3.10;;;29.90;49.50;;;;;;6214372;23;20323;-73
2023/07/28 09:39:14;;;;;;;10.00;2.70;;;29.80;49.40;;;;;;6214293;23;20315;-74
2023/07/28 09:41:40;;;;;;;8.00;2.55;;;29.90;49.60;;;;;;6214229;23;20027;-75
2023/07/28 09:44:06;;;;;;;12.45;3.10;;;30.00;49.50;;;;;;6214235;23;20009;-74
2023/07/28 09:46:38;;;;;;;17.13;3.10;;;30.10;49.10;;;;;;6214601;23;20088;-74
2023/07/28 09:49:12;;;;;;;9.60;2.95;;;30.10;48.30;;;;;;6213981;23;20013;-74
2023/07/28 09:51:40;;;;;;;8.85;2.92;;;30.20;48.80;;;;;;6214540;23;20124;-75
2023/07/28 09:54:17;;;;;;;11.48;2.95;;;30.20;48.70;;;;;;6214174;23;20071;-75
2023/07/28 09:56:46;;;;;;;7.65;2.47;;;30.20;48.90;;;;;;6214049;23;20253;-75
2023/07/28 09:59:16;;;;;;;8.80;2.67;;;30.30;48.70;;;;;;6214232;23;20011;-75
2023/07/28 10:01:45;;;;;;;6.10;2.72;;;30.30;48.70;;;;;;6213924;23;20004;-75
2023/07/28 10:04:11;;;;;;;9.82;2.60;;;30.40;48.80;;;;;;6213712;23;20396;-75
2023/07/28 10:06:38;;;;;;;9.55;2.60;;;30.50;48.80;;;;;;6214408;23;20054;-74
2023/07/28 10:09:05;;;;;;;7.28;2.75;;;30.40;48.70;;;;;;6214170;23;20009;-74
2023/07/28 10:11:32;;;;;;;7.78;2.25;;;30.40;48.60;;;;;;6214358;23;20005;-75
2023/07/28 10:13:57;;;;;;;8.73;2.90;;;30.40;48.70;;;;;;6214221;23;20005;-74
2023/07/28 10:16:49;;;;;;;15.90;2.65;;;30.50;48.50;;;;;;6214139;23;20110;-74
2023/07/28 10:19:20;;;;;;;13.35;3.38;;;30.70;48.30;;;;;;6208341;23;20343;-74
2023/07/28 10:21:46;;;;;;;13.30;3.05;;;30.70;48.50;;;;;;6214125;23;19997;-73
2023/07/28 10:24:11;;;;;;;8.50;2.70;;;30.70;48.40;;;;;;6214254;23;20000;-74
2023/07/28 10:26:41;;;;;;;15.27;2.92;;;30.60;48.40;;;;;;6214057;23;20004;-76
2023/07/28 10:29:16;;;;;;;15.10;3.20;;;30.60;48.60;;;;;;6213937;23;20016;-74
2023/07/28 10:31:56;;;;;;;13.05;3.25;;;30.70;48.30;;;;;;6214763;23;20009;-75
2023/07/28 10:34:22;;;;;;;12.73;3.20;;;30.80;48.20;;;;;;6214799;23;20043;-75
2023/07/28 10:36:59;;;;;;;10.07;2.53;;;30.90;48.10;;;;;;6214745;23;20064;-75
2023/07/28 10:39:25;;;;;;;10.07;2.40;;;30.90;46.90;;;;;;6213934;23;20011;-75
2023/07/28 10:42:20;;;;;;;6.72;2.20;;;31.00;47.90;;;;;;6214199;23;20071;-75
2023/07/28 10:44:46;;;;;;;8.85;2.53;;;31.00;47.70;;;;;;6188872;23;20044;-75
2023/07/28 10:47:12;;;;;;;7.05;2.20;;;30.90;47.80;;;;;;6215294;23;20003;-74
2023/07/28 10:49:38;;;;;;;8.63;2.92;;;30.80;47.70;;;;;;6216743;23;20020;-76
2023/07/28 10:52:04;;;;;;;6.18;2.63;;;30.80;47.90;;;;;;6216068;23;20333;-75
2023/07/28 10:54:31;;;;;;;8.45;2.30;;;30.80;47.90;;;;;;6216480;23;20011;-75
2023/07/28 10:57:03;;;;;;;6.63;2.20;;;30.90;48.00;;;;;;6216061;23;20462;-73
2023/07/28 10:59:30;;;;;;;7.10;2.53;;;30.90;47.50;;;;;;6216518;23;20080;-76
2023/07/28 11:01:56;;;;;;;6.45;2.22;;;30.90;48.10;;;;;;6215894;23;20011;-75
2023/07/28 11:04:23;;;;;;;5.53;2.42;;;30.90;47.40;;;;;;6216149;23;20015;-75
2023/07/28 11:06:50;;;;;;;6.07;2.45;;;30.80;47.30;;;;;;6216107;23;20005;-75
2023/07/28 11:09:23;;;;;;;6.43;2.40;;;30.80;47.60;;;;;;6215870;23;20058;-75
2023/07/28 11:11:50;;;;;;;6.70;2.60;;;30.70;47.70;;;;;;6216145;23;20406;-74
2023/07/28 11:14:17;;;;;;;9.55;2.60;;;30.80;47.80;;;;;;6216168;23;19997;-75
2023/07/28 11:16:47;;;;;;;8.60;2.80;;;30.80;47.90;;;;;;6189154;23;20355;-74
2023/07/28 11:19:13;;;;;;;6.68;2.60;;;31.00;47.70;;;;;;6216086;23;20027;-73
2023/07/28 11:21:40;;;;;;;9.35;2.65;;;31.00;47.80;;;;;;6215954;23;20047;-74
2023/07/28 11:24:11;;;;;;;6.25;2.50;;;31.10;48.10;;;;;;6215763;23;20035;-74
2023/07/28 11:26:38;;;;;;;7.00;2.58;;;31.20;48.30;;;;;;6215930;23;19997;-74
2023/07/28 11:29:04;;;;;;;13.88;3.78;;;31.20;48.30;;;;;;6215736;23;20041;-75
2023/07/28 11:31:30;;;;;;;5.38;2.15;;;31.30;48.20;;;;;;6215753;23;20004;-75
2023/07/28 11:33:56;;;;;;;8.13;2.58;;;31.30;47.60;;;;;;6215459;23;20007;-75
2023/07/28 11:36:25;;;;;;;9.65;2.35;;;31.30;48.10;;;;;;6215938;23;20001;-75
2023/07/28 11:38:54;;;;;;;7.80;2.60;;;31.30;48.10;;;;;;6215746;23;20035;-74
2023/07/28 11:41:21;;;;;;;10.70;2.80;;;31.30;48.20;;;;;;6215576;23;20431;-73
2023/07/28 11:43:50;;;;;;;9.88;3.25;;;31.30;48.30;;;;;;6215590;23;20005;-74
2023/07/28 11:46:36;;;;;;;7.82;2.50;;;31.40;48.20;;;;;;6215606;23;20001;-75
2023/07/28 11:49:21;;;;;;;6.95;2.33;;;31.50;48.10;;;;;;6215626;23;20012;-76
2023/07/28 11:51:49;;;;;;;7.38;2.13;;;31.60;46.10;;;;;;6216426;23;20000;-76
2023/07/28 11:54:19;;;;;;;9.80;2.60;;;31.60;46.90;;;;;;6216027;23;20023;-75
2023/07/28 11:56:46;;;;;;;5.40;2.30;;;31.50;47.10;;;;;;6216150;23;20020;-76
2023/07/28 11:59:15;;;;;;;9.98;2.55;;;31.60;46.70;;;;;;6215096;23;20028;-75
2023/07/28 12:01:58;;;;;;;5.93;2.40;;;31.70;46.90;;;;;;6215479;23;20000;-75
2023/07/28 12:04:28;;;;;;;10.88;2.60;;;31.70;45.30;;;;;;6215541;23;20013;-74
2023/07/28 12:07:16;;;;;;;11.40;3.15;;;31.80;45.10;;;;;;6215641;23;20011;-75
2023/07/28 12:10:00;;;;;;;5.85;2.08;;;31.80;45.30;;;;;;6216012;23;20341;-75
2023/07/28 12:12:27;;;;;;;;;;;31.90;44.60;;;;;;6216760;23;20487;-75
2023/07/28 12:14:53;;;;;;;5.95;2.05;;;32.00;45.40;;;;;;6216017;23;19944;-74
2023/07/28 12:17:23;;;;;;;7.95;2.15;;;32.00;44.90;;;;;;6216055;23;19996;-75
2023/07/28 12:19:59;;;;;;;5.28;2.28;;;32.00;43.80;;;;;;6188824;23;20464;-75
2023/07/28 12:22:26;;;;;;;9.52;2.38;;;31.90;43.50;;;;;;6215425;23;20423;-75
2023/07/28 12:24:53;;;;;;;7.82;2.00;;;32.00;44.60;;;;;;6215481;23;20009;-74
2023/07/28 12:27:23;;;;;;;10.32;2.20;;;32.00;44.40;;;;;;6215440;23;20001;-74
2023/07/28 12:29:49;;;;;;;8.63;2.42;;;32.10;44.40;;;;;;6215709;23;20043;-74
2023/07/28 12:32:15;;;;;;;6.72;2.47;;;32.20;44.60;;;;;;6215487;23;20349;-75
2023/07/28 12:34:40;;;;;;;7.90;2.30;;;32.20;44.50;;;;;;6215425;23;20039;-75
2023/07/28 12:37:06;;;;;;;7.95;2.03;;;32.20;44.40;;;;;;6215383;23;20071;-75
2023/07/28 12:39:33;;;;;;;5.55;1.90;;;32.20;44.50;;;;;;6216373;23;20393;-75
2023/07/28 12:41:59;;;;;;;6.32;2.08;;;32.30;44.60;;;;;;6215705;23;20331;-75